Time;durP1;ratioP1;P1;durP2;ratioP2;P2;SDS_P1;SDS_P2;PMS_P1;PMS_P2;Temp;Humidity;BMP_temperature;BMP_pressure;BME280_temperature;BME280_humidity;BME280_pressure;Samples;Min_cycle;Max_cycle;Signal;HPM_P1;HPM_P2
2023/09/05 00:02:15;;;;;;;;;;;26.10;69.40;;;;;;5051373;28;19944;-34
2023/09/05 00:04:44;;;;;;;;;;;26.10;69.60;;;;;;5060337;28;19917;-34
2023/09/05 00:07:10;;;;;;;;;;;26.10;69.50;;;;;;5049363;28;19957;-34
2023/09/05 00:09:36;;;;;;;;;;;26.10;69.60;;;;;;5051881;28;19908;-34
2023/09/05 00:12:03;;;;;;;;;;;26.10;69.70;;;;;;5061667;28;19912;-34
2023/09/05 00:14:29;;;;;;;;;;;26.10;69.60;;;;;;5076497;28;19924;-35
2023/09/05 00:16:55;;;;;;;;;;;26.10;69.70;;;;;;5077953;28;19908;-35
2023/09/05 00:19:21;;;;;;;;;;;26.20;69.90;;;;;;5077207;28;19930;-35
2023/09/05 00:21:46;;;;;;;;;;;26.20;70.00;;;;;;5077155;28;19980;-35
2023/09/05 00:24:31;;;;;;;;;;;26.20;69.90;;;;;;5069768;28;20297;-34
2023/09/05 00:27:03;;;;;;;;;;;26.20;70.00;;;;;;5069249;28;19913;-35
2023/09/05 00:29:30;;;;;;;;;;;26.20;69.90;;;;;;5074052;28;19924;-34
2023/09/05 00:31:59;;;;;;;;;;;26.20;70.00;;;;;;5074859;28;19913;-35
2023/09/05 00:34:31;;;;;;;;;;;26.20;70.00;;;;;;5066835;28;19955;-34
2023/09/05 00:37:04;;;;;;;;;;;26.20;70.00;;;;;;5074491;28;19948;-35
2023/09/05 00:39:30;;;;;;;;;;;26.20;70.00;;;;;;5082945;28;19916;-35
2023/09/05 00:41:56;;;;;;;;;;;26.20;70.00;;;;;;5066518;28;19919;-35
2023/09/05 00:44:25;;;;;;;;;;;26.20;70.00;;;;;;5082957;28;19908;-34
2023/09/05 00:46:52;;;;;;;;;;;26.20;70.20;;;;;;5073675;28;19913;-34
2023/09/05 00:49:22;;;;;;;;;;;26.20;70.20;;;;;;5074155;28;20441;-35
2023/09/05 00:51:52;;;;;;;;;;;26.20;70.30;;;;;;5051914;28;19912;-34
2023/09/05 00:54:18;;;;;;;;;;;26.20;70.20;;;;;;5076359;28;19912;-35
2023/09/05 00:56:44;;;;;;;;;;;26.20;70.40;;;;;;5076431;28;19971;-35
2023/09/05 00:59:10;;;;;;;;;;;26.20;70.30;;;;;;5073944;28;20018;-35
2023/09/05 01:01:36;;;;;;;;;;;26.20;70.30;;;;;;5067256;28;19912;-34
2023/09/05 01:04:02;;;;;;;;;;;26.20;70.30;;;;;;5073005;28;19963;-34
2023/09/05 01:06:37;;;;;;;;;;;26.20;70.30;;;;;;5053246;28;19943;-35
2023/09/05 01:09:08;;;;;;;;;;;26.20;70.40;;;;;;5066357;28;20441;-34
2023/09/05 01:11:33;;;;;;;;;;;26.20;70.50;;;;;;5055930;28;19917;-34
2023/09/05 01:13:59;;;;;;;;;;;26.20;70.60;;;;;;5070430;28;19924;-35
2023/09/05 01:16:25;;;;;;;;;;;26.10;70.40;;;;;;5063864;28;20358;-34
2023/09/05 01:18:51;;;;;;;;;;;26.10;70.60;;;;;;5083442;28;19912;-35
2023/09/05 01:21:21;;;;;;;;;;;26.10;70.60;;;;;;5069348;28;19912;-35
2023/09/05 01:24:08;;;;;;;;;;;26.10;70.40;;;;;;5076080;28;19934;-34
2023/09/05 01:26:34;;;;;;;;;;;26.10;70.60;;;;;;5047635;28;19931;-35
2023/09/05 01:29:00;;;;;;;;;;;26.10;70.60;;;;;;5069924;28;19912;-34
2023/09/05 01:31:26;;;;;;;;;;;26.10;70.60;;;;;;5080692;28;19923;-34
2023/09/05 01:33:52;;;;;;;;;;;26.10;70.70;;;;;;5083499;28;19909;-35
2023/09/05 01:36:18;;;;;;;;;;;26.10;70.70;;;;;;5068874;28;19917;-35
2023/09/05 01:38:44;;;;;;;;;;;26.10;70.70;;;;;;5082698;28;19935;-34
2023/09/05 01:41:10;;;;;;;;;;;26.10;70.60;;;;;;5077449;28;19908;-34
2023/09/05 01:43:36;;;;;;;;;;;26.10;70.60;;;;;;5056533;28;19923;-34
2023/09/05 01:46:02;;;;;;;;;;;26.10;70.50;;;;;;5071169;28;19948;-34
2023/09/05 01:48:28;;;;;;;;;;;26.10;70.50;;;;;;5065982;28;19920;-34
2023/09/05 01:50:54;;;;;;;;;;;26.10;70.40;;;;;;5064537;28;19908;-35
2023/09/05 01:53:20;;;;;;;;;;;26.10;70.30;;;;;;5072305;28;19912;-34
2023/09/05 01:55:46;;;;;;;;;;;26.10;70.30;;;;;;5061433;28;19908;-35
2023/09/05 01:58:12;;;;;;;;;;;26.10;70.20;;;;;;5075375;28;20027;-35
2023/09/05 02:00:38;;;;;;;;;;;26.10;70.20;;;;;;5062911;28;19913;-34
2023/09/05 02:03:04;;;;;;;;;;;26.10;70.10;;;;;;5076851;28;19904;-34
2023/09/05 02:05:29;;;;;;;;;;;26.10;70.30;;;;;;5071032;28;19970;-34
2023/09/05 02:07:56;;;;;;;;;;;26.10;70.30;;;;;;5069982;28;19908;-34
2023/09/05 02:10:22;;;;;;;;;;;26.00;70.40;;;;;;5081569;28;19908;-35
2023/09/05 02:12:49;;;;;;;;;;;26.00;70.40;;;;;;5075943;28;19919;-34
2023/09/05 02:15:15;;;;;;;;;;;26.00;70.40;;;;;;5062753;28;19916;-34
2023/09/05 02:17:40;;;;;;;;;;;26.10;70.60;;;;;;5074006;28;19912;-34
2023/09/05 02:20:06;;;;;;;;;;;26.00;70.50;;;;;;5082406;28;19905;-35
2023/09/05 02:22:32;;;;;;;;;;;26.00;70.50;;;;;;5074264;28;19919;-35
2023/09/05 02:25:00;;;;;;;;;;;26.00;70.30;;;;;;5082125;28;19912;-34
2023/09/05 02:27:27;;;;;;;;;;;26.00;70.30;;;;;;5070875;28;20539;-34
2023/09/05 02:30:01;;;;;;;;;;;26.00;70.10;;;;;;5050860;28;19916;-34
2023/09/05 02:32:29;;;;;;;;;;;26.00;70.20;;;;;;5066652;28;19920;-34
2023/09/05 02:35:05;;;;;;;;;;;26.00;70.10;;;;;;5119670;27;19922;-35
2023/09/05 02:37:31;;;;;;;;;;;26.00;69.90;;;;;;5121147;28;19912;-34
2023/09/05 02:39:58;;;;;;;;;;;25.90;69.80;;;;;;5114440;28;19931;-35
2023/09/05 02:42:23;;;;;;;;;;;25.90;69.90;;;;;;5110692;28;20031;-34
2023/09/05 02:44:50;;;;;;;;;;;25.90;70.00;;;;;;5109059;28;19966;-34
2023/09/05 02:47:16;;;;;;;;;;;25.90;69.80;;;;;;5108511;28;20347;-34
2023/09/05 02:49:42;;;;;;;;;;;25.90;70.20;;;;;;5115587;28;19916;-35
2023/09/05 02:52:08;;;;;;;;;;;25.90;70.20;;;;;;5113197;28;20443;-34
2023/09/05 02:54:33;;;;;;;;;;;25.90;70.30;;;;;;5117765;28;19952;-34
2023/09/05 02:56:59;;;;;;;;;;;25.90;70.30;;;;;;5107952;28;20342;-35
2023/09/05 02:59:25;;;;;;;;;;;25.90;70.40;;;;;;5107070;28;19912;-34
2023/09/05 03:01:51;;;;;;;;;;;25.90;70.50;;;;;;5102847;28;19923;-34
2023/09/05 03:04:17;;;;;;;;;;;25.80;70.50;;;;;;5110540;28;19926;-34
2023/09/05 03:06:43;;;;;;;;;;;25.80;70.40;;;;;;5122994;28;19912;-34
2023/09/05 03:09:09;;;;;;;;;;;25.80;70.50;;;;;;5145293;27;19912;-34
2023/09/05 03:11:34;;;;;;;;;;;25.80;70.30;;;;;;5119017;28;19926;-34
2023/09/05 03:14:01;;;;;;;;;;;25.80;69.90;;;;;;5128787;28;19920;-34
2023/09/05 03:16:28;;;;;;;;;;;25.80;70.00;;;;;;5105984;28;19963;-34
2023/09/05 03:18:59;;;;;;;;;;;25.80;69.90;;;;;;5107097;28;19917;-34
2023/09/05 03:21:25;;;;;;;;;;;25.80;70.00;;;;;;5110184;28;19913;-34
2023/09/05 03:23:52;;;;;;;;;;;25.80;70.00;;;;;;5112216;28;20039;-34
2023/09/05 03:26:18;;;;;;;;;;;25.80;70.00;;;;;;5120153;28;19916;-35
2023/09/05 03:28:44;;;;;;;;;;;25.80;70.00;;;;;;5109087;28;19927;-35
2023/09/05 03:31:10;;;;;;;;;;;25.70;69.90;;;;;;5108948;28;19913;-34
2023/09/05 03:33:36;;;;;;;;;;;25.70;70.00;;;;;;5108757;28;19921;-34
2023/09/05 03:36:03;;;;;;;;;;;25.70;70.40;;;;;;5110421;28;19917;-34
2023/09/05 03:38:49;;;;;;;;;;;25.70;70.30;;;;;;5110969;28;19912;-34
2023/09/05 03:41:15;;;;;;;;;;;25.70;70.50;;;;;;5073868;28;19917;-34
2023/09/05 03:43:41;;;;;;;;;;;25.70;70.70;;;;;;5076751;28;19994;-34
2023/09/05 03:46:06;;;;;;;;;;;25.70;70.70;;;;;;5065468;28;19913;-34
2023/09/05 03:48:32;;;;;;;;;;;25.70;70.70;;;;;;5063050;28;19917;-34
2023/09/05 03:50:58;;;;;;;;;;;25.60;70.40;;;;;;5063576;28;19955;-34
2023/09/05 03:53:24;;;;;;;;;;;25.60;70.30;;;;;;5062801;28;19960;-34
2023/09/05 03:55:50;;;;;;;;;;;25.60;70.20;;;;;;5063389;28;19917;-34
2023/09/05 03:58:16;;;;;;;;;;;25.60;70.20;;;;;;5062128;28;19912;-34
2023/09/05 04:00:42;;;;;;;;;;;25.60;70.30;;;;;;5063311;28;20399;-34
2023/09/05 04:03:10;;;;;;;;;;;25.60;70.20;;;;;;5063011;28;19983;-34
2023/09/05 04:05:36;;;;;;;;;;;25.60;70.30;;;;;;5060063;28;19913;-34
2023/09/05 04:08:05;;;;;;;;;;;25.60;70.30;;;;;;5065431;28;19917;-34
2023/09/05 04:10:31;;;;;;;;;;;25.60;70.30;;;;;;5062826;28;19913;-34
2023/09/05 04:12:57;;;;;;;;;;;25.60;70.30;;;;;;5063448;28;19927;-34
2023/09/05 04:15:23;;;;;;;;;;;25.50;70.20;;;;;;5063112;28;20040;-34
2023/09/05 04:17:50;;;;;;;;;;;25.50;70.30;;;;;;5069258;28;19939;-35
2023/09/05 04:20:17;;;;;;;;;;;25.60;70.50;;;;;;5131300;27;19987;-36
2023/09/05 04:22:42;;;;;;;;;;;25.50;70.40;;;;;;5096781;28;19937;-34
2023/09/05 04:25:08;;;;;;;;;;;25.50;70.60;;;;;;5097035;28;19939;-34
2023/09/05 04:27:34;;;;;;;;;;;25.50;70.60;;;;;;5095903;28;19976;-34
2023/09/05 04:30:00;;;;;;;;;;;25.50;70.50;;;;;;5090239;28;19999;-34
2023/09/05 04:32:32;;;;;;;;;;;25.50;70.70;;;;;;5094985;28;19924;-35
2023/09/05 04:34:59;;;;;;;;;;;25.40;70.50;;;;;;5093954;28;19920;-35
2023/09/05 04:37:25;;;;;;;;;;;25.40;70.50;;;;;;5098951;28;19912;-34
2023/09/05 04:39:51;;;;;;;;;;;25.40;70.60;;;;;;5092467;28;19917;-34
2023/09/05 04:42:17;;;;;;;;;;;25.40;70.60;;;;;;5094496;28;19923;-34
2023/09/05 04:44:42;;;;;;;;;;;25.40;70.70;;;;;;5097094;28;19923;-35
2023/09/05 04:47:19;;;;;;;;;;;25.40;70.70;;;;;;5089921;28;19986;-34
2023/09/05 04:49:44;;;;;;;;;;;25.40;70.70;;;;;;5085704;28;19921;-34
2023/09/05 04:52:11;;;;;;;;;;;25.40;70.70;;;;;;5092702;28;19918;-34
2023/09/05 04:54:37;;;;;;;;;;;25.40;70.70;;;;;;5095329;28;19979;-34
2023/09/05 04:57:03;;;;;;;;;;;25.30;70.70;;;;;;5097307;28;19913;-34
2023/09/05 04:59:29;;;;;;;;;;;25.30;70.80;;;;;;5098093;28;19970;-34
2023/09/05 05:01:55;;;;;;;;;;;25.30;70.80;;;;;;5086324;28;19912;-34
2023/09/05 05:04:22;;;;;;;;;;;25.30;70.80;;;;;;5085550;28;20381;-34
2023/09/05 05:06:48;;;;;;;;;;;25.30;70.90;;;;;;5096007;28;19957;-34
2023/09/05 05:09:14;;;;;;;;;;;25.30;70.90;;;;;;5104644;28;19923;-34
2023/09/05 05:11:39;;;;;;;;;;;25.30;70.90;;;;;;5091068;28;19912;-34
2023/09/05 05:14:05;;;;;;;;;;;25.30;70.90;;;;;;5101805;28;19978;-34
2023/09/05 05:16:31;;;;;;;;;;;25.20;70.90;;;;;;5087495;28;19912;-34
2023/09/05 05:18:57;;;;;;;;;;;25.20;70.90;;;;;;5097446;28;19916;-34
2023/09/05 05:21:23;;;;;;;;;;;25.20;71.00;;;;;;5089860;28;19940;-34
2023/09/05 05:23:49;;;;;;;;;;;25.20;70.90;;;;;;5085270;28;20413;-34
2023/09/05 05:26:15;;;;;;;;;;;25.20;70.90;;;;;;5100072;28;19912;-34
2023/09/05 05:28:41;;;;;;;;;;;25.20;71.10;;;;;;5093968;28;20003;-34
2023/09/05 05:31:13;;;;;;;;;;;25.20;71.10;;;;;;5094022;28;19916;-34
2023/09/05 05:33:39;;;;;;;;;;;25.20;71.10;;;;;;5084772;28;19943;-34
2023/09/05 05:36:05;;;;;;;;;;;25.20;71.10;;;;;;5086166;28;19916;-34
2023/09/05 05:38:31;;;;;;;;;;;25.20;71.20;;;;;;5094570;28;19913;-34
2023/09/05 05:40:58;;;;;;;;;;;25.10;71.10;;;;;;5091192;28;19916;-34
2023/09/05 05:43:27;;;;;;;;;;;25.10;71.10;;;;;;5093639;28;19923;-34
2023/09/05 05:45:53;;;;;;;;;;;25.10;71.10;;;;;;5085375;28;19992;-34
2023/09/05 05:48:19;;;;;;;;;;;25.10;71.20;;;;;;5086590;28;19959;-35
2023/09/05 05:50:45;;;;;;;;;;;25.10;71.10;;;;;;5098669;28;19923;-34
2023/09/05 05:53:10;;;;;;;;;;;25.10;71.10;;;;;;5084646;28;19952;-34
2023/09/05 05:55:36;;;;;;;;;;;25.10;71.10;;;;;;5084693;28;20373;-34
2023/09/05 05:58:02;;;;;;;;;;;25.00;71.20;;;;;;5092569;28;19917;-34
2023/09/05 06:00:29;;;;;;;;;;;25.00;71.10;;;;;;5094219;28;19919;-34
2023/09/05 06:02:55;;;;;;;;;;;25.00;71.20;;;;;;5095641;28;19918;-34
2023/09/05 06:05:22;;;;;;;;;;;25.00;71.20;;;;;;5094515;28;19916;-34
2023/09/05 06:07:49;;;;;;;;;;;25.00;71.30;;;;;;5089599;28;19923;-34
2023/09/05 06:10:16;;;;;;;;;;;25.00;71.30;;;;;;5090833;28;19920;-35
2023/09/05 06:12:41;;;;;;;;;;;25.00;71.40;;;;;;5093878;28;20409;-34
2023/09/05 06:15:08;;;;;;;;;;;25.00;71.50;;;;;;5091600;28;19920;-34
2023/09/05 06:17:34;;;;;;;;;;;25.00;71.40;;;;;;5086493;28;19923;-34
2023/09/05 06:20:00;;;;;;;;;;;24.90;71.40;;;;;;5099397;28;19916;-34
2023/09/05 06:22:26;;;;;;;;;;;25.00;71.40;;;;;;5092357;28;19924;-34
2023/09/05 06:24:52;;;;;;;;;;;25.00;71.50;;;;;;5101995;28;19924;-34
2023/09/05 06:27:18;;;;;;;;;;;24.90;71.50;;;;;;5102018;28;19923;-34
2023/09/05 06:29:43;;;;;;;;;;;24.90;71.50;;;;;;5097642;28;20418;-34
2023/09/05 06:32:09;;;;;;;;;;;24.90;71.60;;;;;;5095975;28;19916;-34
2023/09/05 06:34:35;;;;;;;;;;;24.90;71.50;;;;;;5094999;28;19924;-34
2023/09/05 06:37:01;;;;;;;;;;;24.90;71.60;;;;;;5093735;28;19920;-34
2023/09/05 06:39:28;;;;;;;;;;;24.90;71.50;;;;;;5091937;28;19970;-34
2023/09/05 06:41:53;;;;;;;;;;;24.80;71.50;;;;;;5089559;28;19930;-34
2023/09/05 06:44:19;;;;;;;;;;;24.90;71.50;;;;;;5102365;28;19944;-34
2023/09/05 06:46:45;;;;;;;;;;;24.80;71.50;;;;;;5091509;28;19920;-34
2023/09/05 06:49:11;;;;;;;;;;;24.80;71.60;;;;;;5087426;28;19917;-35
2023/09/05 06:51:37;;;;;;;;;;;24.80;71.50;;;;;;5092748;28;19917;-34
2023/09/05 06:54:03;;;;;;;;;;;24.80;71.40;;;;;;5096764;28;19944;-34
2023/09/05 06:56:29;;;;;;;;;;;24.80;71.60;;;;;;5100413;28;20319;-34
2023/09/05 06:58:55;;;;;;;;;;;24.80;71.60;;;;;;5097566;28;20457;-34
2023/09/05 07:01:20;;;;;;;;;;;24.80;71.70;;;;;;5098112;28;19923;-34
2023/09/05 07:03:46;;;;;;;;;;;24.70;71.60;;;;;;5093895;28;19930;-34
2023/09/05 07:06:13;;;;;;;;;;;24.70;71.70;;;;;;5102024;28;19916;-35
2023/09/05 07:08:40;;;;;;;;;;;24.80;71.70;;;;;;5100630;28;19946;-34
2023/09/05 07:11:06;;;;;;;;;;;24.70;71.70;;;;;;5101306;28;19912;-34
2023/09/05 07:13:32;;;;;;;;;;;24.70;71.70;;;;;;5094058;28;19939;-34
2023/09/05 07:15:58;;;;;;;;;;;24.70;71.70;;;;;;5096622;28;19938;-34
2023/09/05 07:18:24;;;;;;;;;;;24.70;71.80;;;;;;5091655;28;19935;-34
2023/09/05 07:20:51;;;;;;;;;;;24.70;71.80;;;;;;5105549;28;19955;-34
2023/09/05 07:23:17;;;;;;;;;;;24.70;71.80;;;;;;5097879;28;19916;-34
2023/09/05 07:25:43;;;;;;;;;;;24.60;71.80;;;;;;5096866;28;19974;-34
2023/09/05 07:28:10;;;;;;;;;;;24.60;71.70;;;;;;5094136;28;19916;-34
2023/09/05 07:30:35;;;;;;;;;;;24.60;71.80;;;;;;5093445;28;19968;-34
2023/09/05 07:33:02;;;;;;;;;;;24.60;71.80;;;;;;5104667;28;19916;-34
2023/09/05 07:35:28;;;;;;;;;;;24.60;71.90;;;;;;5103771;28;19963;-34
2023/09/05 07:37:54;;;;;;;;;;;24.60;71.90;;;;;;5107590;28;19916;-34
2023/09/05 07:40:22;;;;;;;;;;;24.60;72.00;;;;;;5097096;28;20007;-34
2023/09/05 07:42:49;;;;;;;;;;;24.60;71.90;;;;;;5090583;28;19922;-34
2023/09/05 07:45:15;;;;;;;;;;;24.60;72.00;;;;;;5090694;28;19913;-34
2023/09/05 07:47:41;;;;;;;;;;;24.60;72.10;;;;;;5090438;28;19939;-34
2023/09/05 07:50:07;;;;;;;;;;;24.60;72.00;;;;;;5104645;28;19925;-34
2023/09/05 07:52:34;;;;;;;;;;;24.50;71.90;;;;;;5122646;27;19912;-34
2023/09/05 07:54:59;;;;;;;;;;;24.50;71.90;;;;;;5093035;28;19924;-34
2023/09/05 07:57:25;;;;;;;;;;;24.50;71.90;;;;;;5102383;28;20704;-34
2023/09/05 07:59:51;;;;;;;;;;;24.50;71.90;;;;;;5104762;28;19985;-34
2023/09/05 08:02:17;;;;;;;;;;;24.50;72.00;;;;;;5104283;28;19923;-34
2023/09/05 08:04:43;;;;;;;;;;;24.50;72.00;;;;;;5104409;28;19957;-34
2023/09/05 08:07:09;;;;;;;;;;;24.50;72.00;;;;;;5098862;28;19920;-34
2023/09/05 08:09:35;;;;;;;;;;;24.40;71.90;;;;;;5100991;28;19920;-34
2023/09/05 08:12:01;;;;;;;;;;;24.40;71.90;;;;;;5089142;28;20424;-34
2023/09/05 08:14:27;;;;;;;;;;;24.40;72.00;;;;;;5094448;28;19924;-34
2023/09/05 08:16:53;;;;;;;;;;;24.40;72.00;;;;;;5104402;28;19980;-35
2023/09/05 08:19:19;;;;;;;;;;;24.40;71.90;;;;;;5105721;28;19915;-34
2023/09/05 08:21:45;;;;;;;;;;;24.40;72.00;;;;;;5093874;28;19919;-34
2023/09/05 08:24:11;;;;;;;;;;;24.40;72.00;;;;;;5102706;28;19916;-34
2023/09/05 08:26:39;;;;;;;;;;;24.40;71.90;;;;;;5094291;28;19916;-34
2023/09/05 08:29:06;;;;;;;;;;;24.40;72.10;;;;;;5093855;28;19920;-34
2023/09/05 08:31:32;;;;;;;;;;;24.40;72.10;;;;;;5087897;28;19916;-34
2023/09/05 08:33:58;;;;;;;;;;;24.40;72.00;;;;;;5101807;28;19924;-34
2023/09/05 08:36:24;;;;;;;;;;;24.30;72.10;;;;;;5096534;28;19923;-34
2023/09/05 08:38:50;;;;;;;;;;;24.30;72.00;;;;;;5103920;28;19912;-34
2023/09/05 08:41:16;;;;;;;;;;;24.30;72.00;;;;;;5103415;28;20285;-35
2023/09/05 08:43:43;;;;;;;;;;;24.30;72.00;;;;;;5089607;28;19915;-34
2023/09/05 08:46:09;;;;;;;;;;;24.30;72.10;;;;;;5104110;28;19963;-34
2023/09/05 08:48:35;;;;;;;;;;;24.30;72.10;;;;;;5094397;28;20002;-34
2023/09/05 08:51:01;;;;;;;;;;;24.30;72.20;;;;;;5098529;28;19916;-34
2023/09/05 08:53:30;;;;;;;;;;;24.30;72.00;;;;;;5095492;28;19920;-35
2023/09/05 08:55:56;;;;;;;;;;;24.20;72.00;;;;;;5097456;28;19942;-33
2023/09/05 08:58:22;;;;;;;;;;;24.30;72.20;;;;;;5103097;28;19916;-34
2023/09/05 09:00:48;;;;;;;;;;;24.20;72.20;;;;;;5121888;27;19916;-34
2023/09/05 09:03:14;;;;;;;;;;;24.20;72.20;;;;;;5093271;28;19920;-34
2023/09/05 09:05:45;;;;;;;;;;;24.20;72.30;;;;;;5096882;28;19979;-34
2023/09/05 09:08:11;;;;;;;;;;;24.20;72.20;;;;;;5091970;28;20416;-34
2023/09/05 09:10:37;;;;;;;;;;;24.20;72.30;;;;;;5083392;28;19923;-34
2023/09/05 09:13:19;;;;;;;;;;;24.20;72.40;;;;;;5098848;28;19912;-34
2023/09/05 09:15:46;;;;;;;;;;;24.10;72.30;;;;;;5095868;28;19924;-34
2023/09/05 09:18:17;;;;;;;;;;;24.10;72.30;;;;;;5095258;28;19916;-34
2023/09/05 09:20:43;;;;;;;;;;;24.10;72.30;;;;;;5095342;28;20407;-35
2023/09/05 09:23:09;;;;;;;;;;;24.10;72.30;;;;;;5092800;28;20304;-34
2023/09/05 09:25:35;;;;;;;;;;;24.10;72.30;;;;;;5085094;28;19920;-34
2023/09/05 09:28:01;;;;;;;;;;;24.10;72.30;;;;;;5090849;28;19919;-34
2023/09/05 09:30:29;;;;;;;;;;;24.10;72.40;;;;;;5091111;28;19917;-34
2023/09/05 09:32:55;;;;;;;;;;;24.10;72.40;;;;;;5089438;28;19923;-34
2023/09/05 09:35:21;;;;;;;;;;;24.10;72.40;;;;;;5084778;28;19920;-34
2023/09/05 09:37:47;;;;;;;;;;;24.10;72.40;;;;;;5090584;28;19916;-34
2023/09/05 09:40:16;;;;;;;;;;;24.10;72.40;;;;;;5084247;28;20387;-34
2023/09/05 09:42:43;;;;;;;;;;;24.10;72.50;;;;;;5090576;28;19982;-34
2023/09/05 09:45:09;;;;;;;;;;;24.10;72.50;;;;;;5092958;28;20003;-34
2023/09/05 09:47:35;;;;;;;;;;;24.10;72.50;;;;;;5093366;28;19920;-34
2023/09/05 09:50:01;;;;;;;;;;;24.10;72.60;;;;;;5083050;28;19944;-34
2023/09/05 09:52:27;;;;;;;;;;;24.00;72.60;;;;;;5093330;28;19923;-34
2023/09/05 09:54:53;;;;;;;;;;;24.00;72.60;;;;;;5122623;27;19924;-34
2023/09/05 09:57:30;;;;;;;;;;;24.00;72.60;;;;;;5084314;28;20709;-35
2023/09/05 09:59:58;;;;;;;;;;;24.00;72.60;;;;;;5132419;27;19923;-34
2023/09/05 10:02:24;;;;;;;;;;;24.00;72.60;;;;;;5095072;28;19912;-34
2023/09/05 10:04:50;;;;;;;;;;;24.00;72.70;;;;;;5092281;28;20408;-34
2023/09/05 10:07:16;;;;;;;;;;;24.00;72.70;;;;;;5098684;28;19916;-34
2023/09/05 10:09:43;;;;;;;;;;;24.00;72.70;;;;;;5100079;27;19956;-34
2023/09/05 10:12:09;;;;;;;;;;;24.00;72.70;;;;;;5090803;28;19916;-35
2023/09/05 10:14:36;;;;;;;;;;;24.00;72.70;;;;;;5094893;28;19935;-34
2023/09/05 10:17:02;;;;;;;;;;;23.90;72.70;;;;;;5096675;28;19923;-34
2023/09/05 10:19:32;;;;;;;;;;;23.90;72.70;;;;;;5098486;28;19951;-34
2023/09/05 10:21:58;;;;;;;;;;;23.90;72.70;;;;;;5096940;28;19916;-34
2023/09/05 10:24:30;;;;;;;;;;;23.90;72.70;;;;;;5083403;28;19912;-34
2023/09/05 10:26:56;;;;;;;;;;;23.90;72.80;;;;;;5129541;27;19916;-34
2023/09/05 10:29:32;;;;;;;;;;;23.90;72.80;;;;;;5094456;28;19922;-34
2023/09/05 10:31:58;;;;;;;;;;;23.90;72.90;;;;;;5090094;28;19923;-34
2023/09/05 10:35:01;;;;;;;;;;;23.90;72.90;;;;;;5090410;28;19923;-34
2023/09/05 10:37:28;;;;;;;;;;;23.90;72.90;;;;;;5091421;28;19917;-34
2023/09/05 10:39:55;;;;;;;;;;;23.80;72.90;;;;;;5092999;28;20376;-34
2023/09/05 10:42:31;;;;;;;;;;;23.80;72.90;;;;;;5095994;28;19942;-34
2023/09/05 10:44:58;;;;;;;;;;;23.80;72.90;;;;;;5102190;28;19959;-34
2023/09/05 10:47:27;;;;;;;;;;;23.80;73.00;;;;;;5101111;28;19943;-34
2023/09/05 10:49:57;;;;;;;;;;;23.80;73.30;;;;;;5097590;28;20521;-34
2023/09/05 10:52:23;;;;;;;;;;;23.80;72.90;;;;;;5099138;28;19916;-34
2023/09/05 10:54:49;;;;;;;;;;;23.80;73.00;;;;;;5116608;27;19975;-34
2023/09/05 10:57:33;;;;;;;;;;;23.80;73.00;;;;;;5087822;28;19944;-34
2023/09/05 10:59:59;;;;;;;;;;;23.80;73.00;;;;;;5091483;28;19923;-34
2023/09/05 11:02:25;;;;;;;;;;;23.80;73.00;;;;;;5103374;28;19955;-34
2023/09/05 11:04:54;;;;;;;;;;;23.80;73.00;;;;;;5091729;28;19916;-34
2023/09/05 11:07:21;;;;;;;;;;;23.70;73.00;;;;;;5095508;28;19959;-34
2023/09/05 11:09:51;;;;;;;;;;;23.70;72.90;;;;;;5087422;28;19916;-35
2023/09/05 11:12:18;;;;;;;;;;;23.70;73.00;;;;;;5088442;28;19984;-34
2023/09/05 11:14:44;;;;;;;;;;;23.70;73.00;;;;;;5094160;28;19944;-34
2023/09/05 11:17:16;;;;;;;;;;;23.70;73.00;;;;;;5087661;28;19974;-34
2023/09/05 11:19:45;;;;;;;;;;;23.70;73.10;;;;;;5089007;28;19998;-34
2023/09/05 11:22:15;;;;;;;;;;;23.70;73.10;;;;;;5091188;28;19912;-34
2023/09/05 11:24:46;;;;;;;;;;;23.70;73.20;;;;;;5095186;28;19916;-34
2023/09/05 11:27:12;;;;;;;;;;;23.70;73.10;;;;;;5094801;28;19916;-34
2023/09/05 11:29:39;;;;;;;;;;;23.70;73.10;;;;;;5098858;28;19970;-34
2023/09/05 11:32:09;;;;;;;;;;;23.70;73.20;;;;;;5088954;28;20003;-34
2023/09/05 11:34:34;;;;;;;;;;;23.60;73.10;;;;;;5088891;28;19953;-34
2023/09/05 11:37:01;;;;;;;;;;;23.60;73.10;;;;;;5095075;28;19916;-34
2023/09/05 11:39:29;;;;;;;;;;;23.60;73.20;;;;;;5086563;28;19946;-34
2023/09/05 11:41:58;;;;;;;;;;;23.60;73.10;;;;;;5091729;28;19919;-34
2023/09/05 11:44:35;;;;;;;;;;;23.60;73.20;;;;;;5096669;28;19939;-34
2023/09/05 11:47:01;;;;;;;;;;;23.60;73.20;;;;;;5098277;28;20011;-34
2023/09/05 11:49:27;;;;;;;;;;;23.60;73.90;;;;;;5097604;28;19916;-34
2023/09/05 11:51:53;;;;;;;;;;;23.60;73.20;;;;;;5131678;27;19916;-34
2023/09/05 11:54:19;;;;;;;;;;;23.60;73.20;;;;;;5096184;28;19931;-34
2023/09/05 11:56:45;;;;;;;;;;;23.60;73.30;;;;;;5122211;27;19920;-34
2023/09/05 11:59:10;;;;;;;;;;;23.50;73.20;;;;;;5126198;27;19916;-34
2023/09/05 12:01:36;;;;;;;;;;;23.50;73.30;;;;;;5094176;28;19995;-34
2023/09/05 12:04:05;;;;;;;;;;;23.50;73.20;;;;;;5094143;28;19917;-34
2023/09/05 12:06:37;;;;;;;;;;;23.50;73.20;;;;;;5103643;28;19911;-34
2023/09/05 12:09:03;;;;;;;;;;;23.50;73.40;;;;;;5091737;28;19916;-34
2023/09/05 12:11:29;;;;;;;;;;;23.50;73.40;;;;;;5101780;28;19923;-34
2023/09/05 12:13:55;;;;;;;;;;;23.50;73.30;;;;;;5096969;28;19920;-34
2023/09/05 12:16:21;;;;;;;;;;;23.50;73.30;;;;;;5103554;28;20377;-35
2023/09/05 12:18:49;;;;;;;;;;;23.50;73.40;;;;;;5131448;27;19940;-34
2023/09/05 12:21:15;;;;;;;;;;;23.50;73.40;;;;;;5098428;28;19913;-34
2023/09/05 12:23:41;;;;;;;;;;;23.50;73.40;;;;;;5096367;28;20569;-34
2023/09/05 12:26:07;;;;;;;;;;;23.50;73.40;;;;;;5123419;27;19923;-34
2023/09/05 12:28:34;;;;;;;;;;;23.40;73.40;;;;;;5091604;28;19912;-34
2023/09/05 12:31:06;;;;;;;;;;;23.50;73.50;;;;;;5098687;28;19912;-34
2023/09/05 12:33:32;;;;;;;;;;;23.50;73.50;;;;;;5100258;28;19924;-34
2023/09/05 12:35:58;;;;;;;;;;;23.50;73.50;;;;;;5098640;28;19947;-34
2023/09/05 12:38:24;;;;;;;;;;;23.40;73.50;;;;;;5104312;28;19908;-34
2023/09/05 12:40:50;;;;;;;;;;;23.40;73.50;;;;;;5101959;28;20483;-34
2023/09/05 12:43:16;;;;;;;;;;;23.40;73.60;;;;;;5096879;28;19908;-34
2023/09/05 12:45:42;;;;;;;;;;;23.40;73.60;;;;;;5088361;28;19996;-34
2023/09/05 12:48:08;;;;;;;;;;;23.40;73.60;;;;;;5097270;28;19913;-34
2023/09/05 12:50:35;;;;;;;;;;;23.40;73.60;;;;;;5099728;28;20019;-34
2023/09/05 12:53:05;;;;;;;;;;;23.40;73.60;;;;;;5096110;28;19952;-34
2023/09/05 12:55:35;;;;;;;;;;;23.40;73.70;;;;;;5094055;28;19972;-34
2023/09/05 12:58:04;;;;;;;;;;;23.40;73.70;;;;;;5091175;28;20010;-34
2023/09/05 13:00:30;;;;;;;;;;;23.40;73.70;;;;;;5090464;28;19912;-34
2023/09/05 13:02:57;;;;;;;;;;;23.30;73.60;;;;;;5092510;28;19912;-34
2023/09/05 13:05:22;;;;;;;;;;;23.40;73.80;;;;;;5098102;28;19912;-34
2023/09/05 13:07:48;;;;;;;;;;;23.30;73.80;;;;;;5106291;28;19916;-34
2023/09/05 13:10:14;;;;;;;;;;;23.30;73.80;;;;;;5105603;28;19937;-34
2023/09/05 13:12:40;;;;;;;;;;;23.30;73.80;;;;;;5093553;28;19919;-34
2023/09/05 13:15:07;;;;;;;;;;;23.30;73.80;;;;;;5087374;28;19917;-34
2023/09/05 13:17:33;;;;;;;;;;;23.30;73.80;;;;;;5093577;28;19951;-34
2023/09/05 13:19:59;;;;;;;;;;;23.30;73.80;;;;;;5105316;28;19916;-34
2023/09/05 13:22:25;;;;;;;;;;;23.30;73.90;;;;;;5102056;28;19916;-34
2023/09/05 13:24:51;;;;;;;;;;;23.30;73.90;;;;;;5102977;28;19916;-34
2023/09/05 13:27:18;;;;;;;;;;;23.30;73.90;;;;;;5101995;28;19920;-34
2023/09/05 13:29:44;;;;;;;;;;;23.30;73.80;;;;;;5099067;28;19946;-34
2023/09/05 13:32:10;;;;;;;;;;;23.30;73.90;;;;;;5093653;28;20311;-34
2023/09/05 13:34:37;;;;;;;;;;;23.30;74.10;;;;;;5093932;28;19924;-34
2023/09/05 13:37:03;;;;;;;;;;;23.30;73.90;;;;;;5100804;28;19943;-34
2023/09/05 13:39:31;;;;;;;;;;;23.30;73.90;;;;;;5101626;28;19919;-34
2023/09/05 13:42:00;;;;;;;;;;;23.30;74.60;;;;;;5103048;28;20048;-34
2023/09/05 13:44:26;;;;;;;;;;;23.30;73.90;;;;;;5101709;28;19912;-34
2023/09/05 13:46:52;;;;;;;;;;;23.30;74.00;;;;;;5102779;28;19916;-34
2023/09/05 13:49:18;;;;;;;;;;;23.30;74.10;;;;;;5103903;28;19916;-34
2023/09/05 13:51:44;;;;;;;;;;;23.30;74.10;;;;;;5102278;28;19924;-34
2023/09/05 13:54:09;;;;;;;;;;;23.30;74.10;;;;;;5095892;28;20316;-34
2023/09/05 13:56:36;;;;;;;;;;;23.30;74.20;;;;;;5095108;28;20012;-34
2023/09/05 13:59:02;;;;;;;;;;;23.30;74.20;;;;;;5094933;28;19961;-34
2023/09/05 14:01:28;;;;;;;;;;;23.30;74.20;;;;;;5093971;28;19920;-34
2023/09/05 14:03:54;;;;;;;;;;;23.30;74.20;;;;;;5091602;28;19980;-35
2023/09/05 14:06:20;;;;;;;;;;;23.30;74.20;;;;;;5090273;28;19916;-34
2023/09/05 14:08:46;;;;;;;;;;;23.30;74.30;;;;;;5093867;28;19920;-35
2023/09/05 14:11:12;;;;;;;;;;;23.30;74.20;;;;;;5095168;28;19912;-34
2023/09/05 14:13:38;;;;;;;;;;;23.30;74.20;;;;;;5084972;28;19967;-34
2023/09/05 14:16:04;;;;;;;;;;;23.40;74.30;;;;;;5085190;28;20419;-34